createdAt,value
2023-12-09T00:00:21.253Z,93.59
2023-12-09T00:02:47.645Z,92.76
2023-12-09T00:05:14.168Z,93.18
2023-12-09T00:07:40.566Z,94.36
2023-12-09T00:10:07.387Z,95.49
2023-12-09T00:12:34.024Z,93.97
2023-12-09T00:15:00.521Z,93.43
2023-12-09T00:17:27.298Z,93.97
2023-12-09T00:19:53.773Z,94.01
2023-12-09T00:22:20.192Z,93.43
2023-12-09T00:24:46.608Z,94.22
2023-12-09T00:27:13.016Z,93.72
2023-12-09T00:29:39.426Z,94.09
2023-12-09T00:32:06.244Z,93.60
2023-12-09T00:34:32.774Z,94.06
2023-12-09T00:36:59.137Z,93.78
2023-12-09T00:39:25.557Z,93.58
2023-12-09T00:41:51.972Z,93.06
2023-12-09T00:44:21.978Z,93.75
2023-12-09T00:46:48.373Z,93.57
2023-12-09T00:49:15.459Z,93.49
2023-12-09T00:51:41.868Z,92.97
2023-12-09T00:54:08.272Z,93.16
2023-12-09T00:56:35.630Z,93.60
2023-12-09T00:59:03.359Z,93.85
2023-12-09T01:01:29.784Z,93.91
2023-12-09T01:03:56.286Z,93.70
2023-12-09T01:06:22.770Z,93.18
2023-12-09T01:08:51.794Z,93.07
2023-12-09T01:11:18.344Z,92.89
2023-12-09T01:13:44.773Z,93.76
2023-12-09T01:16:11.570Z,93.35
2023-12-09T01:18:38.046Z,93.28
2023-12-09T01:21:04.885Z,92.95
2023-12-09T01:23:31.609Z,92.70
2023-12-09T01:25:57.975Z,92.72
2023-12-09T01:28:24.349Z,93.11
2023-12-09T01:30:50.716Z,92.82
2023-12-09T01:33:17.237Z,93.00
2023-12-09T01:35:43.713Z,93.11
2023-12-09T01:38:10.118Z,94.23
2023-12-09T01:40:36.818Z,93.55
2023-12-09T01:43:03.209Z,93.43
2023-12-09T01:45:29.619Z,93.46
2023-12-09T01:47:56.208Z,92.98
2023-12-09T01:50:22.777Z,93.13
2023-12-09T01:52:49.262Z,93.15
2023-12-09T01:55:16.394Z,92.92
2023-12-09T01:57:43.383Z,93.22
2023-12-09T02:00:12.183Z,92.65
2023-12-09T02:02:38.735Z,92.71
2023-12-09T02:05:06.224Z,92.80
2023-12-09T02:07:32.739Z,93.03
2023-12-09T02:09:59.297Z,92.61
2023-12-09T02:12:36.364Z,92.54
2023-12-09T02:15:24.838Z,92.89
2023-12-09T02:17:55.158Z,92.99
2023-12-09T02:20:22.082Z,92.79
2023-12-09T02:22:48.525Z,92.79
2023-12-09T02:25:15.018Z,92.52
2023-12-09T02:27:50.616Z,92.17
2023-12-09T02:30:26.552Z,92.85
2023-12-09T02:32:56.497Z,91.94
2023-12-09T02:35:25.262Z,92.67
2023-12-09T02:37:53.225Z,92.16
2023-12-09T02:40:20.318Z,92.81
2023-12-09T02:42:48.001Z,92.81
2023-12-09T02:45:14.437Z,92.97
2023-12-09T02:47:40.848Z,91.93
2023-12-09T02:50:07.500Z,92.53
2023-12-09T02:52:33.923Z,91.83
2023-12-09T02:55:00.358Z,91.90
2023-12-09T02:57:26.855Z,92.50
2023-12-09T02:59:53.324Z,92.05
2023-12-09T03:02:19.800Z,91.61
2023-12-09T03:04:46.212Z,91.63
2023-12-09T03:07:12.764Z,91.53
2023-12-09T03:09:39.167Z,91.53
2023-12-09T03:12:06.045Z,91.77
2023-12-09T03:14:32.503Z,91.89
2023-12-09T03:16:58.871Z,91.49
2023-12-09T03:19:25.403Z,91.38
2023-12-09T03:21:51.815Z,91.82
2023-12-09T03:24:18.292Z,91.16
2023-12-09T03:26:44.670Z,90.62
2023-12-09T03:29:11.051Z,90.80
2023-12-09T03:31:41.171Z,90.46
2023-12-09T03:34:07.640Z,90.29
2023-12-09T03:36:35.999Z,90.41
2023-12-09T03:39:02.510Z,90.79
2023-12-09T03:41:28.919Z,90.69
2023-12-09T03:43:55.279Z,90.57
2023-12-09T03:46:21.704Z,90.87
2023-12-09T03:48:48.296Z,90.93
2023-12-09T03:51:14.861Z,90.86
2023-12-09T03:53:44.753Z,90.18
2023-12-09T03:56:14.582Z,90.26
2023-12-09T03:58:41.332Z,90.00
2023-12-09T04:01:08.055Z,90.23
2023-12-09T04:03:34.661Z,90.67
2023-12-09T04:06:02.391Z,90.70
2023-12-09T04:08:28.864Z,90.65
2023-12-09T04:10:55.261Z,91.57
2023-12-09T04:13:21.826Z,90.41
2023-12-09T04:15:48.263Z,90.43
2023-12-09T04:18:14.952Z,90.32
2023-12-09T04:20:41.682Z,90.23
2023-12-09T04:23:08.163Z,90.96
2023-12-09T04:25:34.540Z,90.57
2023-12-09T04:28:01.023Z,90.01
2023-12-09T04:30:27.403Z,89.84
2023-12-09T04:32:53.956Z,89.86
2023-12-09T04:35:20.394Z,89.98
2023-12-09T04:37:46.811Z,90.22
2023-12-09T04:40:15.184Z,90.82
2023-12-09T04:42:42.974Z,90.56
2023-12-09T04:45:09.912Z,89.84
2023-12-09T04:47:37.992Z,89.46
2023-12-09T04:50:05.831Z,89.12
2023-12-09T04:52:32.208Z,89.58
2023-12-09T04:54:58.613Z,90.04
2023-12-09T04:57:25.330Z,89.70
2023-12-09T04:59:51.817Z,89.60
2023-12-09T05:02:21.589Z,90.12
2023-12-09T05:04:48.107Z,89.04
2023-12-09T05:07:15.405Z,89.12
2023-12-09T05:09:42.147Z,88.65
2023-12-09T05:12:08.707Z,88.79
2023-12-09T05:14:35.094Z,88.24
2023-12-09T05:17:01.968Z,88.22
2023-12-09T05:19:28.441Z,88.66
2023-12-09T05:21:54.985Z,88.18
2023-12-09T05:24:21.476Z,87.90
2023-12-09T05:26:48.046Z,87.76
2023-12-09T05:29:14.433Z,87.41
2023-12-09T05:31:41.852Z,87.16
2023-12-09T05:34:09.328Z,87.91
2023-12-09T05:36:37.858Z,87.95
2023-12-09T05:39:04.698Z,87.65
2023-12-09T05:41:31.120Z,87.73
2023-12-09T05:43:57.494Z,87.63
2023-12-09T05:46:23.878Z,87.92
2023-12-09T05:48:50.701Z,88.05
2023-12-09T05:51:17.326Z,87.79
2023-12-09T05:53:43.771Z,87.54
2023-12-09T05:56:11.170Z,87.56
2023-12-09T05:58:38.384Z,87.08
2023-12-09T06:01:04.953Z,87.12
2023-12-09T06:03:31.423Z,87.48
2023-12-09T06:05:58.877Z,87.09
2023-12-09T06:08:25.475Z,87.71
2023-12-09T06:10:52.437Z,87.08
2023-12-09T06:13:18.862Z,87.22
2023-12-09T06:15:46.933Z,87.44
2023-12-09T06:18:14.648Z,87.18
2023-12-09T06:20:41.176Z,86.58
2023-12-09T06:23:07.579Z,87.14
2023-12-09T06:25:33.951Z,87.54
2023-12-09T06:28:01.055Z,87.72
2023-12-09T06:30:27.478Z,87.29
2023-12-09T06:32:54.213Z,86.88
2023-12-09T06:35:20.720Z,86.22
2023-12-09T06:37:47.107Z,86.24
2023-12-09T06:40:13.667Z,86.11
2023-12-09T06:42:40.062Z,85.78
2023-12-09T06:45:07.096Z,85.44
2023-12-09T06:47:33.694Z,85.46
2023-12-09T06:50:00.212Z,85.33
2023-12-09T06:52:26.849Z,85.46
2023-12-09T06:54:53.538Z,85.34
2023-12-09T06:57:19.928Z,84.93
2023-12-09T06:59:46.305Z,84.99
2023-12-09T07:02:12.700Z,85.26
2023-12-09T07:04:39.524Z,85.50
2023-12-09T07:07:08.654Z,85.60
2023-12-09T07:09:37.869Z,85.57
2023-12-09T07:12:04.705Z,84.81
2023-12-09T07:14:31.151Z,85.66
2023-12-09T07:16:57.993Z,85.86
2023-12-09T07:19:24.441Z,85.93
2023-12-09T07:21:52.256Z,85.82
2023-12-09T07:24:19.000Z,85.88
2023-12-09T07:26:45.405Z,85.38
2023-12-09T07:29:11.785Z,85.21
2023-12-09T07:31:38.346Z,85.47
2023-12-09T07:34:04.822Z,85.42
2023-12-09T07:36:31.379Z,85.40
2023-12-09T07:38:57.792Z,85.36
2023-12-09T07:41:24.170Z,85.25
2023-12-09T07:43:50.606Z,85.03
2023-12-09T07:46:17.046Z,86.46
2023-12-09T07:48:43.561Z,86.34
2023-12-09T07:51:10.132Z,85.98
2023-12-09T07:53:36.547Z,86.26
2023-12-09T07:56:03.011Z,87.00
2023-12-09T07:58:29.427Z,86.84
2023-12-09T08:00:56.024Z,85.99
2023-12-09T08:03:22.519Z,85.76
2023-12-09T08:05:49.025Z,84.73
2023-12-09T08:08:15.537Z,85.61
2023-12-09T08:10:42.038Z,85.79
2023-12-09T08:13:09.808Z,86.26
2023-12-09T08:15:36.529Z,86.51
2023-12-09T08:18:04.760Z,87.04
2023-12-09T08:20:31.315Z,85.79
2023-12-09T08:22:57.799Z,86.63
2023-12-09T08:25:24.194Z,86.28
2023-12-09T08:27:50.617Z,85.48
2023-12-09T08:30:17.021Z,86.18
2023-12-09T08:32:44.695Z,86.25
2023-12-09T08:35:12.063Z,86.40
2023-12-09T08:37:39.785Z,87.02
2023-12-09T08:40:11.543Z,86.50
2023-12-09T08:42:41.989Z,86.80
2023-12-09T08:45:13.054Z,86.55
2023-12-09T08:47:42.853Z,86.75
2023-12-09T08:50:21.897Z,86.47
2023-12-09T08:52:51.986Z,86.05
2023-12-09T08:55:18.758Z,86.01
2023-12-09T08:57:46.269Z,86.93
2023-12-09T09:00:14.970Z,86.66
2023-12-09T09:02:41.528Z,87.09
2023-12-09T09:05:08.507Z,86.94
2023-12-09T09:07:39.951Z,86.68
2023-12-09T09:10:07.428Z,87.76
2023-12-09T09:12:34.065Z,88.05
2023-12-09T09:15:04.595Z,87.56
2023-12-09T09:17:33.482Z,87.91
2023-12-09T09:19:59.941Z,87.69
2023-12-09T09:22:26.985Z,87.10
2023-12-09T09:24:53.580Z,87.99
2023-12-09T09:27:20.076Z,87.99
2023-12-09T09:29:47.787Z,88.40
2023-12-09T09:32:14.334Z,88.36
2023-12-09T09:34:42.720Z,88.27
2023-12-09T09:37:09.788Z,88.64
2023-12-09T09:39:36.433Z,88.29
2023-12-09T09:42:30.843Z,88.63
2023-12-09T09:45:06.500Z,88.43
2023-12-09T09:47:38.103Z,88.02
2023-12-09T09:50:09.622Z,88.82
2023-12-09T09:52:38.050Z,89.07
2023-12-09T09:55:07.612Z,89.02
2023-12-09T09:57:35.624Z,87.93
2023-12-09T10:00:02.650Z,88.68
2023-12-09T10:02:29.508Z,88.31
2023-12-09T10:04:56.329Z,88.82
2023-12-09T10:07:23.664Z,88.38
2023-12-09T10:09:51.027Z,88.54
2023-12-09T10:12:17.544Z,87.81
2023-12-09T10:14:44.339Z,87.59
2023-12-09T10:17:11.023Z,88.56
2023-12-09T10:19:37.892Z,89.02
2023-12-09T10:22:14.282Z,87.56
2023-12-09T10:24:49.898Z,88.18
2023-12-09T10:27:19.947Z,88.47
2023-12-09T10:30:20.163Z,88.32
2023-12-09T10:32:48.264Z,87.61
2023-12-09T10:35:17.954Z,88.45
2023-12-09T10:38:19.700Z,88.17
2023-12-09T10:40:51.273Z,87.98
2023-12-09T10:43:18.473Z,88.05
2023-12-09T10:45:45.037Z,88.13
2023-12-09T10:48:11.659Z,88.48
2023-12-09T10:50:41.162Z,88.76
2023-12-09T10:53:07.819Z,89.37
2023-12-09T10:55:34.359Z,89.11
2023-12-09T10:58:01.476Z,89.37
2023-12-09T11:00:31.341Z,89.34
2023-12-09T11:03:02.831Z,90.46
2023-12-09T11:05:30.294Z,89.26
2023-12-09T11:07:58.737Z,90.55
2023-12-09T11:10:25.457Z,89.96
2023-12-09T11:12:51.927Z,89.80
2023-12-09T11:15:29.524Z,89.96
2023-12-09T11:17:56.839Z,89.09
2023-12-09T11:20:26.070Z,88.02
2023-12-09T11:22:55.311Z,87.57
2023-12-09T11:25:23.830Z,88.06
2023-12-09T11:27:52.167Z,88.41
2023-12-09T11:30:38.438Z,87.77
2023-12-09T11:33:06.118Z,87.77
2023-12-09T11:35:36.833Z,88.42
2023-12-09T11:38:06.402Z,89.87
2023-12-09T11:40:33.912Z,90.31
2023-12-09T11:43:02.448Z,90.19
2023-12-09T11:45:30.867Z,89.54
2023-12-09T11:48:20.077Z,89.57
2023-12-09T11:50:48.353Z,90.00
2023-12-09T11:53:16.026Z,91.30
2023-12-09T11:55:42.582Z,90.98
2023-12-09T11:58:14.361Z,91.65
2023-12-09T12:01:08.456Z,90.70
2023-12-09T12:03:35.512Z,90.23
2023-12-09T12:06:04.632Z,90.29
2023-12-09T12:08:31.235Z,92.39
2023-12-09T12:10:57.945Z,93.56
2023-12-09T12:13:27.110Z,93.53
2023-12-09T12:15:56.101Z,93.77
2023-12-09T12:18:25.805Z,94.68
2023-12-09T12:20:52.507Z,95.13
2023-12-09T12:23:29.970Z,94.80
2023-12-09T12:26:00.006Z,95.70
2023-12-09T12:28:27.146Z,96.58
2023-12-09T12:30:55.912Z,96.24
2023-12-09T12:33:23.722Z,97.16
2023-12-09T12:35:54.521Z,96.19
2023-12-09T12:38:25.023Z,95.40
2023-12-09T12:40:52.593Z,96.11
2023-12-09T12:43:20.221Z,95.74
2023-12-09T12:45:51.649Z,94.91
2023-12-09T12:48:19.096Z,95.99
2023-12-09T12:50:49.172Z,95.46
2023-12-09T12:53:18.765Z,96.00
2023-12-09T12:55:45.862Z,96.67
2023-12-09T12:58:12.573Z,97.17
2023-12-09T13:00:40.183Z,96.92
2023-12-09T13:03:08.305Z,95.63
2023-12-09T13:05:35.737Z,96.70
2023-12-09T13:08:02.421Z,96.28
2023-12-09T13:10:28.781Z,96.76
2023-12-09T13:12:56.041Z,96.58
2023-12-09T13:15:22.662Z,95.60
2023-12-09T13:17:51.007Z,96.03
2023-12-09T13:20:17.851Z,96.12
2023-12-09T13:22:46.825Z,96.38
2023-12-09T13:25:15.019Z,96.68
2023-12-09T13:27:43.047Z,96.61
2023-12-09T13:30:10.419Z,97.35
2023-12-09T13:32:42.257Z,97.19
2023-12-09T13:35:11.759Z,96.98
2023-12-09T13:37:39.425Z,96.61
2023-12-09T13:40:11.250Z,96.58
2023-12-09T13:42:38.834Z,97.45
2023-12-09T13:45:06.790Z,97.31
2023-12-09T13:47:33.425Z,97.25
2023-12-09T13:50:15.248Z,97.41
2023-12-09T13:52:42.544Z,98.10
2023-12-09T13:55:12.065Z,98.17
2023-12-09T13:57:40.931Z,98.46
2023-12-09T14:00:09.381Z,98.73
2023-12-09T14:02:41.431Z,99.56
2023-12-09T14:05:14.849Z,100.00
2023-12-09T14:07:45.600Z,99.92
2023-12-09T14:10:13.767Z,100.00
2023-12-09T14:12:45.044Z,100.00
2023-12-09T14:15:15.200Z,100.00
2023-12-09T14:17:43.559Z,100.00
2023-12-09T14:20:16.842Z,100.00
2023-12-09T14:22:47.023Z,100.00
2023-12-09T14:25:14.077Z,100.00
2023-12-09T14:27:43.825Z,100.00
2023-12-09T14:30:12.701Z,100.00
2023-12-09T14:32:39.851Z,100.00
2023-12-09T14:35:09.306Z,100.00
2023-12-09T14:37:36.913Z,100.00
2023-12-09T14:40:06.179Z,100.00
2023-12-09T14:42:33.075Z,100.00
2023-12-09T14:44:59.488Z,100.00
2023-12-09T14:47:28.271Z,100.00
2023-12-09T14:49:54.889Z,100.00
2023-12-09T14:52:22.752Z,100.00
2023-12-09T14:54:49.275Z,100.00
2023-12-09T14:57:16.614Z,100.00
2023-12-09T14:59:43.298Z,100.00
2023-12-09T15:02:18.978Z,100.00
2023-12-09T15:04:47.851Z,100.00
2023-12-09T15:07:14.405Z,100.00
2023-12-09T15:09:40.932Z,100.00
2023-12-09T15:12:07.495Z,100.00
2023-12-09T15:14:33.985Z,100.00
2023-12-09T15:17:00.602Z,100.00
2023-12-09T15:19:27.111Z,100.00
2023-12-09T15:21:53.771Z,100.00
2023-12-09T15:24:35.094Z,100.00
2023-12-09T15:27:06.914Z,100.00
2023-12-09T15:29:33.566Z,100.00
2023-12-09T15:32:00.150Z,100.00
2023-12-09T15:34:31.761Z,100.00
2023-12-09T15:36:58.928Z,100.00
2023-12-09T15:39:26.787Z,100.00
2023-12-09T15:41:53.491Z,100.00
2023-12-09T15:44:21.069Z,100.00
2023-12-09T15:46:51.744Z,100.00
2023-12-09T15:49:18.329Z,100.00
2023-12-09T15:51:47.537Z,100.00
2023-12-09T15:54:15.460Z,100.00
2023-12-09T15:56:45.077Z,100.00
2023-12-09T15:59:13.784Z,100.00
2023-12-09T16:01:40.595Z,100.00
2023-12-09T16:04:08.804Z,100.00
2023-12-09T16:06:35.396Z,100.00
2023-12-09T16:09:04.694Z,100.00
2023-12-09T16:11:32.567Z,100.00
2023-12-09T16:13:59.042Z,100.00
2023-12-09T16:16:25.747Z,100.00
2023-12-09T16:18:55.729Z,100.00
2023-12-09T16:21:23.319Z,100.00
2023-12-09T16:23:50.206Z,100.00
2023-12-09T16:26:17.074Z,100.00
2023-12-09T16:28:45.508Z,100.00
2023-12-09T16:31:14.988Z,100.00
2023-12-09T16:33:41.732Z,100.00
2023-12-09T16:36:09.204Z,100.00
2023-12-09T16:38:35.800Z,100.00
2023-12-09T16:41:02.747Z,100.00
2023-12-09T16:43:29.179Z,100.00
2023-12-09T16:45:56.437Z,100.00
2023-12-09T16:48:23.364Z,100.00
2023-12-09T16:50:49.900Z,100.00
2023-12-09T16:53:18.966Z,100.00
2023-12-09T16:55:45.883Z,100.00
2023-12-09T16:58:12.960Z,100.00
2023-12-09T17:00:39.575Z,100.00
2023-12-09T17:03:06.140Z,100.00
2023-12-09T17:05:32.877Z,100.00
2023-12-09T17:07:59.440Z,100.00
2023-12-09T17:10:25.905Z,100.00
2023-12-09T17:12:53.473Z,100.00
2023-12-09T17:15:20.325Z,100.00
2023-12-09T17:17:50.061Z,100.00
2023-12-09T17:20:17.104Z,100.00
2023-12-09T17:22:49.351Z,100.00
2023-12-09T17:25:17.852Z,100.00
2023-12-09T17:27:44.760Z,100.00
2023-12-09T17:33:57.499Z,100.00
2023-12-09T17:36:28.938Z,100.00
2023-12-09T17:38:56.018Z,100.00
2023-12-09T17:41:23.040Z,100.00
2023-12-09T17:43:49.970Z,100.00
2023-12-09T17:46:17.488Z,100.00
2023-12-09T17:48:46.234Z,100.00
2023-12-09T17:51:12.818Z,100.00
2023-12-09T17:53:39.307Z,100.00
2023-12-09T17:56:08.458Z,100.00
2023-12-09T17:58:34.969Z,100.00
2023-12-09T18:01:01.712Z,100.00
2023-12-09T18:03:28.316Z,100.00
2023-12-09T18:05:55.640Z,100.00
2023-12-09T18:08:31.180Z,100.00
2023-12-09T18:13:52.310Z,100.00
2023-12-09T18:20:06.204Z,100.00
2023-12-09T18:22:41.245Z,100.00
2023-12-09T18:25:25.806Z,100.00
2023-12-09T18:27:57.246Z,100.00
2023-12-09T18:30:29.415Z,100.00
2023-12-09T18:32:56.953Z,100.00
2023-12-09T18:35:23.513Z,100.00
2023-12-09T18:37:50.419Z,100.00
2023-12-09T18:40:17.126Z,100.00
2023-12-09T18:42:43.850Z,100.00
2023-12-09T18:45:10.399Z,100.00
2023-12-09T18:47:37.338Z,100.00
2023-12-09T18:52:31.633Z,100.00
2023-12-09T18:54:58.146Z,100.00
2023-12-09T18:57:24.918Z,100.00
2023-12-09T18:59:51.684Z,100.00
2023-12-09T19:02:19.543Z,100.00
2023-12-09T19:04:46.239Z,100.00
2023-12-09T19:07:13.502Z,100.00
2023-12-09T19:09:40.398Z,100.00
2023-12-09T19:12:07.404Z,100.00
2023-12-09T19:14:33.879Z,100.00
2023-12-09T19:17:01.142Z,100.00
2023-12-09T19:19:34.167Z,100.00
2023-12-09T19:22:01.131Z,100.00
2023-12-09T19:24:27.863Z,100.00
2023-12-09T19:26:54.355Z,100.00
2023-12-09T19:29:20.986Z,100.00
2023-12-09T19:31:47.727Z,100.00
2023-12-09T19:34:14.302Z,100.00
2023-12-09T19:36:46.085Z,100.00
2023-12-09T19:39:13.294Z,100.00
2023-12-09T19:41:39.802Z,100.00
2023-12-09T19:44:06.372Z,100.00
2023-12-09T19:46:33.024Z,100.00
2023-12-09T19:48:59.572Z,100.00
2023-12-09T19:51:26.276Z,100.00
2023-12-09T19:53:52.844Z,100.00
2023-12-09T19:56:19.360Z,100.00
2023-12-09T19:58:46.209Z,100.00
2023-12-09T20:01:12.737Z,100.00
2023-12-09T20:03:39.560Z,100.00
2023-12-09T20:06:07.101Z,100.00
2023-12-09T20:08:33.751Z,100.00
2023-12-09T20:11:00.776Z,100.00
2023-12-09T20:13:27.376Z,100.00
2023-12-09T20:15:54.162Z,100.00
2023-12-09T20:18:20.950Z,100.00
2023-12-09T20:20:47.800Z,100.00
2023-12-09T20:23:14.791Z,100.00
2023-12-09T20:25:41.278Z,100.00
2023-12-09T20:28:08.003Z,100.00
2023-12-09T20:30:39.188Z,100.00
2023-12-09T20:33:07.575Z,100.00
2023-12-09T20:35:34.438Z,100.00
2023-12-09T20:38:02.648Z,100.00
2023-12-09T20:40:29.300Z,100.00
2023-12-09T20:42:56.072Z,100.00
2023-12-09T20:45:23.102Z,100.00
2023-12-09T20:47:49.689Z,100.00
2023-12-09T20:50:16.565Z,99.97
2023-12-09T20:52:43.009Z,98.47
2023-12-09T20:55:09.825Z,98.20
2023-12-09T20:57:36.447Z,97.90
2023-12-09T21:00:03.795Z,96.63
2023-12-09T21:02:30.794Z,95.39
2023-12-09T21:04:58.148Z,95.84
2023-12-09T21:07:24.706Z,95.24
2023-12-09T21:09:51.461Z,95.34
2023-12-09T21:12:18.129Z,95.54
2023-12-09T21:14:44.695Z,94.36
2023-12-09T21:17:11.094Z,95.19
2023-12-09T21:19:38.478Z,94.23
2023-12-09T21:22:05.318Z,94.08
2023-12-09T21:24:32.337Z,94.64
2023-12-09T21:26:59.053Z,94.42
2023-12-09T21:29:25.768Z,93.64
2023-12-09T21:31:52.404Z,93.77
2023-12-09T21:34:19.228Z,92.43
2023-12-09T21:36:46.338Z,92.20
2023-12-09T21:39:13.133Z,92.11
2023-12-09T21:41:39.842Z,91.63
2023-12-09T21:44:06.491Z,91.14
2023-12-09T21:46:32.945Z,91.05
2023-12-09T21:48:59.915Z,92.44
2023-12-09T21:51:26.690Z,90.56
2023-12-09T21:53:53.137Z,91.34
2023-12-09T21:56:22.173Z,90.36
2023-12-09T21:58:50.128Z,90.03
2023-12-09T22:01:20.497Z,90.04
2023-12-09T22:03:47.797Z,90.07
2023-12-09T22:06:14.617Z,90.93
2023-12-09T22:08:42.593Z,90.96
2023-12-09T22:11:12.978Z,90.25
2023-12-09T22:13:40.378Z,89.95
2023-12-09T22:16:20.905Z,89.23
2023-12-09T22:18:48.926Z,89.01
2023-12-09T22:21:15.829Z,89.35
2023-12-09T22:23:42.480Z,89.57
2023-12-09T22:26:09.152Z,88.09
2023-12-09T22:28:39.839Z,87.61
2023-12-09T22:31:09.132Z,88.53
2023-12-09T22:33:37.309Z,86.78
2023-12-09T22:36:04.024Z,86.29
2023-12-09T22:38:30.398Z,86.71
2023-12-09T22:40:57.010Z,85.23
2023-12-09T22:43:23.459Z,85.30
2023-12-09T22:45:51.470Z,85.29
2023-12-09T22:48:18.219Z,86.47
2023-12-09T22:50:44.749Z,86.38
2023-12-09T22:53:11.150Z,85.76
2023-12-09T22:55:37.633Z,85.21
2023-12-09T22:58:04.083Z,84.11
2023-12-09T23:00:34.334Z,85.49
2023-12-09T23:03:04.041Z,84.69
2023-12-09T23:05:30.627Z,83.38
2023-12-09T23:07:57.207Z,84.72
2023-12-09T23:10:23.806Z,82.96
2023-12-09T23:12:50.352Z,83.42
2023-12-09T23:15:17.335Z,82.33
2023-12-09T23:17:43.816Z,83.46
2023-12-09T23:20:10.590Z,83.02
2023-12-09T23:22:37.070Z,83.54
2023-12-09T23:25:03.857Z,83.25
2023-12-09T23:27:30.330Z,82.09
2023-12-09T23:29:56.776Z,81.71
2023-12-09T23:32:23.441Z,81.79
2023-12-09T23:34:49.980Z,83.89
2023-12-09T23:37:16.453Z,84.07
2023-12-09T23:39:42.909Z,82.93
2023-12-09T23:42:09.340Z,84.07
2023-12-09T23:44:35.760Z,82.55
2023-12-09T23:47:02.289Z,82.67
2023-12-09T23:49:28.767Z,82.13
2023-12-09T23:51:55.294Z,81.68
2023-12-09T23:54:21.784Z,81.36
2023-12-09T23:56:48.154Z,79.79
2023-12-09T23:59:15.035Z,80.02
